sensor_id;sensor_type;location;lat;lon;timestamp;pressure;altitude;pressure_sealevel;temperature;humidity
62055;BME280;48653;51.742;-1.256;2023-02-23T00:03:44;100899.46;;;7.19;49.68
62055;BME280;48653;51.742;-1.256;2023-02-23T00:06:09;100899.73;;;6.50;51.65
62055;BME280;48653;51.742;-1.256;2023-02-23T00:08:34;100903.12;;;5.71;53.68
62055;BME280;48653;51.742;-1.256;2023-02-23T00:10:59;100907.35;;;5.95;54.06
62055;BME280;48653;51.742;-1.256;2023-02-23T00:13:25;100910.08;;;6.01;54.18
62055;BME280;48653;51.742;-1.256;2023-02-23T00:15:50;100907.85;;;5.97;54.73
62055;BME280;48653;51.742;-1.256;2023-02-23T00:18:15;100909.66;;;5.62;55.32
62055;BME280;48653;51.742;-1.256;2023-02-23T00:20:41;100908.58;;;6.10;54.52
62055;BME280;48653;51.742;-1.256;2023-02-23T00:23:07;100908.73;;;5.09;56.74
62055;BME280;48653;51.742;-1.256;2023-02-23T00:25:32;100907.96;;;6.09;55.82
62055;BME280;48653;51.742;-1.256;2023-02-23T00:27:58;100910.20;;;5.62;56.67
62055;BME280;48653;51.742;-1.256;2023-02-23T00:30:23;100910.09;;;5.67;55.61
62055;BME280;48653;51.742;-1.256;2023-02-23T00:32:49;100910.92;;;6.28;54.41
62055;BME280;48653;51.742;-1.256;2023-02-23T00:35:14;100915.36;;;5.36;56.76
62055;BME280;48653;51.742;-1.256;2023-02-23T00:37:39;100918.70;;;6.74;53.95
62055;BME280;48653;51.742;-1.256;2023-02-23T00:40:05;100917.08;;;5.61;56.29
62055;BME280;48653;51.742;-1.256;2023-02-23T00:42:29;100921.83;;;6.47;53.83
62055;BME280;48653;51.742;-1.256;2023-02-23T00:44:54;100920.40;;;6.06;54.59
62055;BME280;48653;51.742;-1.256;2023-02-23T00:47:20;100919.89;;;6.26;55.16
62055;BME280;48653;51.742;-1.256;2023-02-23T00:49:45;100922.98;;;6.37;54.36
62055;BME280;48653;51.742;-1.256;2023-02-23T00:52:10;100925.31;;;5.94;55.41
62055;BME280;48653;51.742;-1.256;2023-02-23T00:54:35;100925.99;;;6.25;55.09
62055;BME280;48653;51.742;-1.256;2023-02-23T00:57:00;100930.20;;;5.23;56.88
62055;BME280;48653;51.742;-1.256;2023-02-23T00:59:26;100927.48;;;6.14;55.54
62055;BME280;48653;51.742;-1.256;2023-02-23T01:01:51;100928.76;;;5.47;56.37
62055;BME280;48653;51.742;-1.256;2023-02-23T01:04:16;100929.38;;;5.96;55.14
62055;BME280;48653;51.742;-1.256;2023-02-23T01:06:42;100931.93;;;5.63;56.49
62055;BME280;48653;51.742;-1.256;2023-02-23T01:09:08;100929.02;;;5.15;57.70
62055;BME280;48653;51.742;-1.256;2023-02-23T01:11:32;100926.75;;;5.63;56.85
62055;BME280;48653;51.742;-1.256;2023-02-23T01:13:59;100925.58;;;5.90;56.31
62055;BME280;48653;51.742;-1.256;2023-02-23T01:16:25;100924.87;;;4.92;58.36
62055;BME280;48653;51.742;-1.256;2023-02-23T01:18:48;100925.92;;;5.39;57.42
62055;BME280;48653;51.742;-1.256;2023-02-23T01:21:14;100928.95;;;5.34;57.36
62055;BME280;48653;51.742;-1.256;2023-02-23T01:23:38;100928.66;;;5.56;56.72
62055;BME280;48653;51.742;-1.256;2023-02-23T01:26:04;100929.11;;;6.26;55.04
62055;BME280;48653;51.742;-1.256;2023-02-23T01:28:29;100929.97;;;6.37;54.68
62055;BME280;48653;51.742;-1.256;2023-02-23T01:30:54;100937.64;;;5.49;56.64
62055;BME280;48653;51.742;-1.256;2023-02-23T01:33:19;100937.60;;;5.96;55.72
62055;BME280;48653;51.742;-1.256;2023-02-23T01:38:11;100938.99;;;5.71;56.19
62055;BME280;48653;51.742;-1.256;2023-02-23T01:40:37;100939.13;;;5.61;56.68
62055;BME280;48653;51.742;-1.256;2023-02-23T01:43:10;100945.32;;;5.79;56.13
62055;BME280;48653;51.742;-1.256;2023-02-23T01:45:31;100946.54;;;5.83;56.55
62055;BME280;48653;51.742;-1.256;2023-02-23T01:47:56;100947.82;;;4.77;58.08
62055;BME280;48653;51.742;-1.256;2023-02-23T01:50:19;100949.54;;;5.56;57.12
62055;BME280;48653;51.742;-1.256;2023-02-23T01:52:45;100948.18;;;5.24;58.10
62055;BME280;48653;51.742;-1.256;2023-02-23T01:55:10;100947.66;;;5.41;57.49
62055;BME280;48653;51.742;-1.256;2023-02-23T01:57:36;100947.52;;;5.35;57.79
62055;BME280;48653;51.742;-1.256;2023-02-23T02:00:01;100947.40;;;5.24;57.06
62055;BME280;48653;51.742;-1.256;2023-02-23T02:02:28;100949.94;;;4.89;58.44
62055;BME280;48653;51.742;-1.256;2023-02-23T02:04:52;100952.88;;;6.15;55.28
62055;BME280;48653;51.742;-1.256;2023-02-23T02:07:21;100950.65;;;6.07;55.29
62055;BME280;48653;51.742;-1.256;2023-02-23T02:09:44;100951.36;;;5.54;56.85
62055;BME280;48653;51.742;-1.256;2023-02-23T02:12:10;100955.31;;;5.35;56.67
62055;BME280;48653;51.742;-1.256;2023-02-23T02:14:34;100952.33;;;5.10;57.81
62055;BME280;48653;51.742;-1.256;2023-02-23T02:17:08;100952.55;;;5.40;56.92
62055;BME280;48653;51.742;-1.256;2023-02-23T02:22:02;100959.07;;;5.74;55.32
62055;BME280;48653;51.742;-1.256;2023-02-23T02:26:49;100960.63;;;5.90;55.44
62055;BME280;48653;51.742;-1.256;2023-02-23T02:29:24;100957.93;;;5.78;55.67
62055;BME280;48653;51.742;-1.256;2023-02-23T02:34:23;100963.26;;;5.51;56.41
62055;BME280;48653;51.742;-1.256;2023-02-23T02:38:54;100960.52;;;6.47;54.38
62055;BME280;48653;51.742;-1.256;2023-02-23T02:41:17;100960.60;;;5.99;55.89
62055;BME280;48653;51.742;-1.256;2023-02-23T02:43:46;100958.75;;;5.99;56.34
62055;BME280;48653;51.742;-1.256;2023-02-23T02:46:09;100957.57;;;6.22;55.68
62055;BME280;48653;51.742;-1.256;2023-02-23T02:48:36;100960.09;;;6.04;55.92
62055;BME280;48653;51.742;-1.256;2023-02-23T02:51:02;100955.93;;;5.94;55.71
62055;BME280;48653;51.742;-1.256;2023-02-23T02:53:25;100959.86;;;5.41;57.44
62055;BME280;48653;51.742;-1.256;2023-02-23T02:55:47;100956.09;;;6.50;55.68
62055;BME280;48653;51.742;-1.256;2023-02-23T02:58:14;100958.50;;;5.65;56.20
62055;BME280;48653;51.742;-1.256;2023-02-23T03:00:40;100954.50;;;5.86;55.75
62055;BME280;48653;51.742;-1.256;2023-02-23T03:03:04;100956.39;;;6.25;54.72
62055;BME280;48653;51.742;-1.256;2023-02-23T03:05:35;100959.27;;;6.22;54.75
62055;BME280;48653;51.742;-1.256;2023-02-23T03:08:03;100961.10;;;5.61;55.94
62055;BME280;48653;51.742;-1.256;2023-02-23T03:10:25;100964.00;;;5.71;55.70
62055;BME280;48653;51.742;-1.256;2023-02-23T03:12:53;100958.95;;;5.68;56.21
62055;BME280;48653;51.742;-1.256;2023-02-23T03:15:21;100958.99;;;5.42;57.27
62055;BME280;48653;51.742;-1.256;2023-02-23T03:17:43;100962.98;;;5.85;55.96
62055;BME280;48653;51.742;-1.256;2023-02-23T03:20:08;100961.75;;;5.08;57.08
62055;BME280;48653;51.742;-1.256;2023-02-23T03:22:33;100961.09;;;5.70;56.39
62055;BME280;48653;51.742;-1.256;2023-02-23T03:24:57;100962.79;;;5.89;55.12
62055;BME280;48653;51.742;-1.256;2023-02-23T03:27:22;100961.59;;;5.74;54.97
62055;BME280;48653;51.742;-1.256;2023-02-23T03:29:48;100959.46;;;5.40;56.24
62055;BME280;48653;51.742;-1.256;2023-02-23T03:32:15;100960.09;;;5.46;55.74
62055;BME280;48653;51.742;-1.256;2023-02-23T03:34:38;100959.08;;;5.78;55.98
62055;BME280;48653;51.742;-1.256;2023-02-23T03:37:05;100961.34;;;5.82;55.59
62055;BME280;48653;51.742;-1.256;2023-02-23T03:39:28;100964.42;;;5.83;55.80
62055;BME280;48653;51.742;-1.256;2023-02-23T03:41:51;100969.68;;;5.88;54.93
62055;BME280;48653;51.742;-1.256;2023-02-23T03:44:18;100966.02;;;5.49;56.00
62055;BME280;48653;51.742;-1.256;2023-02-23T03:46:41;100968.03;;;6.44;53.91
62055;BME280;48653;51.742;-1.256;2023-02-23T03:49:08;100970.53;;;5.39;55.84
62055;BME280;48653;51.742;-1.256;2023-02-23T03:51:33;100970.06;;;5.48;55.71
62055;BME280;48653;51.742;-1.256;2023-02-23T03:53:59;100971.84;;;4.86;58.17
62055;BME280;48653;51.742;-1.256;2023-02-23T03:56:24;100969.91;;;5.29;57.35
62055;BME280;48653;51.742;-1.256;2023-02-23T03:58:49;100972.91;;;4.96;57.81
62055;BME280;48653;51.742;-1.256;2023-02-23T04:01:13;100972.05;;;5.73;56.11
62055;BME280;48653;51.742;-1.256;2023-02-23T04:03:39;100978.13;;;4.92;57.60
62055;BME280;48653;51.742;-1.256;2023-02-23T04:06:03;100981.17;;;5.61;55.83
62055;BME280;48653;51.742;-1.256;2023-02-23T04:08:32;100984.18;;;5.12;57.02
62055;BME280;48653;51.742;-1.256;2023-02-23T04:11:08;100987.59;;;5.04;57.71
62055;BME280;48653;51.742;-1.256;2023-02-23T04:13:23;100992.20;;;5.41;55.98
62055;BME280;48653;51.742;-1.256;2023-02-23T04:15:50;100992.43;;;5.47;56.25
62055;BME280;48653;51.742;-1.256;2023-02-23T04:18:13;100994.53;;;4.99;58.61
62055;BME280;48653;51.742;-1.256;2023-02-23T04:20:35;100992.71;;;4.93;57.85
62055;BME280;48653;51.742;-1.256;2023-02-23T04:23:00;100993.14;;;5.79;56.24
62055;BME280;48653;51.742;-1.256;2023-02-23T04:25:25;100994.72;;;5.62;56.22
62055;BME280;48653;51.742;-1.256;2023-02-23T04:27:50;100994.19;;;5.31;56.16
62055;BME280;48653;51.742;-1.256;2023-02-23T04:30:17;100998.91;;;4.64;58.25
62055;BME280;48653;51.742;-1.256;2023-02-23T04:32:42;100999.69;;;5.30;59.24
62055;BME280;48653;51.742;-1.256;2023-02-23T04:35:08;101000.54;;;5.12;58.56
62055;BME280;48653;51.742;-1.256;2023-02-23T04:37:32;101003.35;;;5.00;58.96
62055;BME280;48653;51.742;-1.256;2023-02-23T04:39:57;101004.29;;;5.06;59.54
62055;BME280;48653;51.742;-1.256;2023-02-23T04:42:22;101007.89;;;5.25;59.49
62055;BME280;48653;51.742;-1.256;2023-02-23T04:44:47;101017.89;;;4.90;60.99
62055;BME280;48653;51.742;-1.256;2023-02-23T04:47:14;101017.88;;;4.67;60.84
62055;BME280;48653;51.742;-1.256;2023-02-23T04:49:38;101017.55;;;4.57;61.25
62055;BME280;48653;51.742;-1.256;2023-02-23T04:52:03;101022.86;;;4.41;62.46
62055;BME280;48653;51.742;-1.256;2023-02-23T04:54:28;101018.38;;;4.82;61.24
62055;BME280;48653;51.742;-1.256;2023-02-23T04:56:54;101021.40;;;4.53;62.36
62055;BME280;48653;51.742;-1.256;2023-02-23T04:59:19;101022.33;;;3.66;64.53
62055;BME280;48653;51.742;-1.256;2023-02-23T05:01:44;101019.06;;;5.04;61.61
62055;BME280;48653;51.742;-1.256;2023-02-23T05:04:10;101019.29;;;4.30;63.57
62055;BME280;48653;51.742;-1.256;2023-02-23T05:06:35;101019.71;;;5.31;60.30
62055;BME280;48653;51.742;-1.256;2023-02-23T05:09:00;101018.53;;;5.91;58.53
62055;BME280;48653;51.742;-1.256;2023-02-23T05:11:25;101023.16;;;5.31;59.12
62055;BME280;48653;51.742;-1.256;2023-02-23T05:13:51;101020.28;;;6.10;57.45
62055;BME280;48653;51.742;-1.256;2023-02-23T05:16:16;101025.13;;;5.65;58.96
62055;BME280;48653;51.742;-1.256;2023-02-23T05:18:41;101026.54;;;6.28;57.59
62055;BME280;48653;51.742;-1.256;2023-02-23T05:21:07;101023.82;;;5.31;59.60
62055;BME280;48653;51.742;-1.256;2023-02-23T05:23:32;101024.87;;;5.42;59.44
62055;BME280;48653;51.742;-1.256;2023-02-23T05:25:59;101028.02;;;4.88;61.48
62055;BME280;48653;51.742;-1.256;2023-02-23T05:28:22;101030.78;;;5.07;60.32
62055;BME280;48653;51.742;-1.256;2023-02-23T05:30:47;101039.85;;;4.69;61.07
62055;BME280;48653;51.742;-1.256;2023-02-23T05:33:13;101048.42;;;5.57;59.13
62055;BME280;48653;51.742;-1.256;2023-02-23T05:35:39;101044.58;;;5.23;59.64
62055;BME280;48653;51.742;-1.256;2023-02-23T05:38:03;101050.15;;;5.64;58.67
62055;BME280;48653;51.742;-1.256;2023-02-23T05:40:29;101051.66;;;5.40;58.87
62055;BME280;48653;51.742;-1.256;2023-02-23T05:42:58;101062.69;;;5.43;58.94
62055;BME280;48653;51.742;-1.256;2023-02-23T05:45:20;101061.23;;;4.90;60.90
62055;BME280;48653;51.742;-1.256;2023-02-23T05:47:45;101065.83;;;4.88;60.93
62055;BME280;48653;51.742;-1.256;2023-02-23T05:50:11;101065.47;;;5.74;58.84
62055;BME280;48653;51.742;-1.256;2023-02-23T05:52:38;101069.30;;;4.85;60.32
62055;BME280;48653;51.742;-1.256;2023-02-23T05:55:02;101072.62;;;5.25;59.72
62055;BME280;48653;51.742;-1.256;2023-02-23T05:57:27;101073.73;;;5.98;57.86
62055;BME280;48653;51.742;-1.256;2023-02-23T05:59:52;101071.94;;;4.72;60.92
62055;BME280;48653;51.742;-1.256;2023-02-23T06:02:17;101080.70;;;5.87;58.80
62055;BME280;48653;51.742;-1.256;2023-02-23T06:04:42;101086.19;;;5.82;58.81
62055;BME280;48653;51.742;-1.256;2023-02-23T06:07:07;101088.57;;;5.75;58.08
62055;BME280;48653;51.742;-1.256;2023-02-23T06:09:32;101093.98;;;6.12;57.26
62055;BME280;48653;51.742;-1.256;2023-02-23T06:11:57;101095.23;;;5.59;58.23
62055;BME280;48653;51.742;-1.256;2023-02-23T06:14:23;101096.91;;;5.19;58.57
62055;BME280;48653;51.742;-1.256;2023-02-23T06:16:48;101098.12;;;5.69;58.17
62055;BME280;48653;51.742;-1.256;2023-02-23T06:19:14;101104.38;;;5.28;59.09
62055;BME280;48653;51.742;-1.256;2023-02-23T06:21:39;101103.79;;;5.70;58.38
62055;BME280;48653;51.742;-1.256;2023-02-23T06:24:05;101112.31;;;5.78;57.78
62055;BME280;48653;51.742;-1.256;2023-02-23T06:26:30;101125.13;;;5.68;57.73
62055;BME280;48653;51.742;-1.256;2023-02-23T06:28:56;101122.62;;;6.38;56.34
62055;BME280;48653;51.742;-1.256;2023-02-23T06:31:20;101134.62;;;5.74;58.31
62055;BME280;48653;51.742;-1.256;2023-02-23T06:33:46;101138.98;;;6.37;57.12
62055;BME280;48653;51.742;-1.256;2023-02-23T06:36:11;101152.35;;;5.61;58.66
62055;BME280;48653;51.742;-1.256;2023-02-23T06:38:37;101154.89;;;5.87;58.39
62055;BME280;48653;51.742;-1.256;2023-02-23T06:41:06;101152.31;;;5.44;57.63
62055;BME280;48653;51.742;-1.256;2023-02-23T06:43:27;101159.51;;;5.82;58.45
62055;BME280;48653;51.742;-1.256;2023-02-23T06:45:52;101159.80;;;5.22;59.11
62055;BME280;48653;51.742;-1.256;2023-02-23T06:48:17;101167.69;;;5.24;59.61
62055;BME280;48653;51.742;-1.256;2023-02-23T06:50:43;101171.49;;;5.05;60.29
62055;BME280;48653;51.742;-1.256;2023-02-23T06:53:08;101175.40;;;5.61;58.69
62055;BME280;48653;51.742;-1.256;2023-02-23T06:55:33;101174.05;;;6.12;57.49
62055;BME280;48653;51.742;-1.256;2023-02-23T06:57:58;101178.16;;;5.20;59.47
62055;BME280;48653;51.742;-1.256;2023-02-23T07:00:24;101179.27;;;4.76;60.93
62055;BME280;48653;51.742;-1.256;2023-02-23T07:02:49;101181.81;;;5.15;61.13
62055;BME280;48653;51.742;-1.256;2023-02-23T07:05:14;101181.66;;;5.15;60.72
62055;BME280;48653;51.742;-1.256;2023-02-23T07:07:39;101189.36;;;4.14;62.36
62055;BME280;48653;51.742;-1.256;2023-02-23T07:10:05;101191.41;;;5.29;60.01
62055;BME280;48653;51.742;-1.256;2023-02-23T07:12:30;101198.95;;;4.89;60.73
62055;BME280;48653;51.742;-1.256;2023-02-23T07:14:55;101198.92;;;5.42;59.40
62055;BME280;48653;51.742;-1.256;2023-02-23T07:17:20;101201.58;;;5.37;59.12
62055;BME280;48653;51.742;-1.256;2023-02-23T07:19:45;101203.52;;;5.29;59.29
62055;BME280;48653;51.742;-1.256;2023-02-23T07:22:10;101202.61;;;6.15;57.72
62055;BME280;48653;51.742;-1.256;2023-02-23T07:24:35;101198.39;;;5.85;58.14
62055;BME280;48653;51.742;-1.256;2023-02-23T07:27:01;101196.25;;;5.84;58.02
62055;BME280;48653;51.742;-1.256;2023-02-23T07:29:26;101197.33;;;5.79;58.15
62055;BME280;48653;51.742;-1.256;2023-02-23T07:31:51;101204.43;;;5.52;59.32
62055;BME280;48653;51.742;-1.256;2023-02-23T07:34:16;101212.21;;;5.96;58.68
62055;BME280;48653;51.742;-1.256;2023-02-23T07:39:06;101231.51;;;4.79;62.30
62055;BME280;48653;51.742;-1.256;2023-02-23T07:41:32;101223.24;;;4.92;62.03
62055;BME280;48653;51.742;-1.256;2023-02-23T07:43:57;101236.20;;;4.32;64.12
62055;BME280;48653;51.742;-1.256;2023-02-23T07:46:22;101236.11;;;4.69;63.21
62055;BME280;48653;51.742;-1.256;2023-02-23T07:48:47;101235.38;;;4.40;63.79
62055;BME280;48653;51.742;-1.256;2023-02-23T07:51:15;101242.75;;;4.38;64.21
62055;BME280;48653;51.742;-1.256;2023-02-23T07:53:38;101246.21;;;5.45;60.89
62055;BME280;48653;51.742;-1.256;2023-02-23T07:56:04;101246.82;;;5.56;59.57
62055;BME280;48653;51.742;-1.256;2023-02-23T07:58:28;101251.32;;;5.05;60.38
62055;BME280;48653;51.742;-1.256;2023-02-23T08:00:53;101255.81;;;5.52;60.01
62055;BME280;48653;51.742;-1.256;2023-02-23T08:03:19;101256.48;;;5.09;60.61
62055;BME280;48653;51.742;-1.256;2023-02-23T08:05:44;101255.33;;;4.82;60.25
62055;BME280;48653;51.742;-1.256;2023-02-23T08:08:10;101260.68;;;6.11;57.55
62055;BME280;48653;51.742;-1.256;2023-02-23T08:10:35;101268.79;;;5.34;58.71
62055;BME280;48653;51.742;-1.256;2023-02-23T08:13:00;101264.13;;;5.13;60.02
62055;BME280;48653;51.742;-1.256;2023-02-23T08:15:26;101269.26;;;5.20;60.58
62055;BME280;48653;51.742;-1.256;2023-02-23T08:17:52;101263.97;;;5.61;58.97
62055;BME280;48653;51.742;-1.256;2023-02-23T08:20:17;101266.31;;;5.20;59.62
62055;BME280;48653;51.742;-1.256;2023-02-23T08:22:43;101271.86;;;5.54;58.35
62055;BME280;48653;51.742;-1.256;2023-02-23T08:25:09;101276.22;;;5.10;59.00
62055;BME280;48653;51.742;-1.256;2023-02-23T08:27:35;101276.68;;;5.06;60.35
62055;BME280;48653;51.742;-1.256;2023-02-23T08:29:59;101272.36;;;4.82;60.80
62055;BME280;48653;51.742;-1.256;2023-02-23T08:32:24;101273.01;;;5.16;60.03
62055;BME280;48653;51.742;-1.256;2023-02-23T08:34:49;101274.18;;;4.60;59.46
62055;BME280;48653;51.742;-1.256;2023-02-23T08:37:15;101280.50;;;5.59;58.56
62055;BME280;48653;51.742;-1.256;2023-02-23T08:39:40;101274.25;;;5.62;59.55
62055;BME280;48653;51.742;-1.256;2023-02-23T08:42:06;101282.93;;;5.55;59.16
62055;BME280;48653;51.742;-1.256;2023-02-23T08:44:31;101279.97;;;4.43;61.79
62055;BME280;48653;51.742;-1.256;2023-02-23T08:46:57;101281.56;;;4.95;60.89
62055;BME280;48653;51.742;-1.256;2023-02-23T08:49:22;101281.88;;;4.96;60.11
62055;BME280;48653;51.742;-1.256;2023-02-23T08:51:47;101286.70;;;4.61;62.03
62055;BME280;48653;51.742;-1.256;2023-02-23T08:54:12;101287.89;;;4.68;61.41
62055;BME280;48653;51.742;-1.256;2023-02-23T08:56:37;101283.63;;;5.56;59.57
62055;BME280;48653;51.742;-1.256;2023-02-23T08:59:03;101274.18;;;5.80;58.14
62055;BME280;48653;51.742;-1.256;2023-02-23T09:01:28;101278.52;;;4.97;60.21
62055;BME280;48653;51.742;-1.256;2023-02-23T09:03:54;101283.17;;;4.91;59.64
62055;BME280;48653;51.742;-1.256;2023-02-23T09:06:22;101284.26;;;4.63;59.11
62055;BME280;48653;51.742;-1.256;2023-02-23T09:08:45;101292.07;;;5.41;59.09
62055;BME280;48653;51.742;-1.256;2023-02-23T09:11:10;101293.50;;;5.92;57.58
62055;BME280;48653;51.742;-1.256;2023-02-23T09:13:35;101298.62;;;5.77;57.46
62055;BME280;48653;51.742;-1.256;2023-02-23T09:16:00;101300.88;;;5.07;58.15
62055;BME280;48653;51.742;-1.256;2023-02-23T09:18:26;101293.58;;;5.94;56.34
62055;BME280;48653;51.742;-1.256;2023-02-23T09:20:51;101302.03;;;5.96;56.16
62055;BME280;48653;51.742;-1.256;2023-02-23T09:23:16;101319.95;;;5.97;55.84
62055;BME280;48653;51.742;-1.256;2023-02-23T09:25:43;101317.84;;;5.51;57.27
62055;BME280;48653;51.742;-1.256;2023-02-23T09:28:09;101328.05;;;5.15;57.60
62055;BME280;48653;51.742;-1.256;2023-02-23T09:30:32;101319.11;;;4.92;57.22
62055;BME280;48653;51.742;-1.256;2023-02-23T09:32:58;101317.31;;;5.79;56.00
62055;BME280;48653;51.742;-1.256;2023-02-23T09:35:24;101312.72;;;6.34;55.19
62055;BME280;48653;51.742;-1.256;2023-02-23T09:37:51;101306.59;;;6.34;54.60
62055;BME280;48653;51.742;-1.256;2023-02-23T09:40:17;101309.81;;;5.88;54.97
62055;BME280;48653;51.742;-1.256;2023-02-23T09:42:45;101311.22;;;5.64;55.45
62055;BME280;48653;51.742;-1.256;2023-02-23T09:45:14;101313.18;;;5.67;55.25
62055;BME280;48653;51.742;-1.256;2023-02-23T09:47:36;101313.87;;;5.20;56.83
62055;BME280;48653;51.742;-1.256;2023-02-23T09:49:58;101316.79;;;5.61;55.58
62055;BME280;48653;51.742;-1.256;2023-02-23T09:52:24;101327.78;;;4.59;58.20
62055;BME280;48653;51.742;-1.256;2023-02-23T09:54:46;101326.79;;;4.82;57.96
62055;BME280;48653;51.742;-1.256;2023-02-23T09:57:14;101330.28;;;5.38;56.72
62055;BME280;48653;51.742;-1.256;2023-02-23T09:59:38;101328.77;;;5.66;55.45
62055;BME280;48653;51.742;-1.256;2023-02-23T10:02:07;101330.60;;;4.96;55.52
62055;BME280;48653;51.742;-1.256;2023-02-23T10:04:30;101325.95;;;4.70;56.07
62055;BME280;48653;51.742;-1.256;2023-02-23T10:06:57;101336.32;;;5.21;55.74
62055;BME280;48653;51.742;-1.256;2023-02-23T10:09:25;101339.82;;;5.21;56.24
62055;BME280;48653;51.742;-1.256;2023-02-23T10:11:47;101347.05;;;5.13;55.85
62055;BME280;48653;51.742;-1.256;2023-02-23T10:14:21;101349.37;;;5.40;56.17
62055;BME280;48653;51.742;-1.256;2023-02-23T10:16:42;101345.43;;;5.32;55.49
62055;BME280;48653;51.742;-1.256;2023-02-23T10:19:04;101348.89;;;5.72;55.44
62055;BME280;48653;51.742;-1.256;2023-02-23T10:21:30;101351.57;;;5.36;55.61
62055;BME280;48653;51.742;-1.256;2023-02-23T10:23:52;101350.31;;;4.84;57.14
62055;BME280;48653;51.742;-1.256;2023-02-23T10:26:16;101354.15;;;5.19;56.64
62055;BME280;48653;51.742;-1.256;2023-02-23T10:28:39;101351.11;;;5.68;55.20
62055;BME280;48653;51.742;-1.256;2023-02-23T10:31:18;101354.43;;;5.31;54.99
62055;BME280;48653;51.742;-1.256;2023-02-23T10:33:34;101354.97;;;5.33;55.22
62055;BME280;48653;51.742;-1.256;2023-02-23T10:35:57;101351.16;;;5.85;54.48
62055;BME280;48653;51.742;-1.256;2023-02-23T10:38:20;101350.51;;;5.77;54.52
62055;BME280;48653;51.742;-1.256;2023-02-23T10:40:50;101364.31;;;5.67;54.56
62055;BME280;48653;51.742;-1.256;2023-02-23T10:43:12;101370.34;;;6.19;53.38
62055;BME280;48653;51.742;-1.256;2023-02-23T10:45:43;101372.34;;;5.03;55.65
62055;BME280;48653;51.742;-1.256;2023-02-23T10:48:06;101370.62;;;6.33;53.52
62055;BME280;48653;51.742;-1.256;2023-02-23T10:50:28;101367.23;;;6.12;53.57
62055;BME280;48653;51.742;-1.256;2023-02-23T10:52:58;101371.22;;;5.85;54.35
62055;BME280;48653;51.742;-1.256;2023-02-23T10:55:23;101371.92;;;5.88;53.74
62055;BME280;48653;51.742;-1.256;2023-02-23T10:57:44;101366.49;;;5.56;54.05
62055;BME280;48653;51.742;-1.256;2023-02-23T11:00:26;101368.94;;;5.88;53.63
62055;BME280;48653;51.742;-1.256;2023-02-23T11:02:34;101362.77;;;6.00;53.12
62055;BME280;48653;51.742;-1.256;2023-02-23T11:05:00;101372.93;;;5.94;52.70
62055;BME280;48653;51.742;-1.256;2023-02-23T11:07:27;101378.32;;;6.53;51.62
62055;BME280;48653;51.742;-1.256;2023-02-23T11:09:50;101372.84;;;6.40;52.13
62055;BME280;48653;51.742;-1.256;2023-02-23T11:12:17;101372.83;;;6.40;51.55
62055;BME280;48653;51.742;-1.256;2023-02-23T11:14:40;101373.89;;;6.42;52.47
62055;BME280;48653;51.742;-1.256;2023-02-23T11:17:08;101383.47;;;6.32;52.52
62055;BME280;48653;51.742;-1.256;2023-02-23T11:19:33;101381.82;;;6.45;52.60
62055;BME280;48653;51.742;-1.256;2023-02-23T11:21:56;101386.55;;;6.64;51.49
62055;BME280;48653;51.742;-1.256;2023-02-23T11:24:24;101384.31;;;5.94;53.11
62055;BME280;48653;51.742;-1.256;2023-02-23T11:26:48;101384.13;;;5.49;54.29
62055;BME280;48653;51.742;-1.256;2023-02-23T11:29:15;101382.22;;;5.61;53.56
62055;BME280;48653;51.742;-1.256;2023-02-23T11:31:36;101384.45;;;5.79;53.69
62055;BME280;48653;51.742;-1.256;2023-02-23T11:34:04;101380.59;;;6.25;52.84
62055;BME280;48653;51.742;-1.256;2023-02-23T11:36:29;101386.99;;;6.10;52.65
62055;BME280;48653;51.742;-1.256;2023-02-23T11:39:02;101386.11;;;6.47;51.70
62055;BME280;48653;51.742;-1.256;2023-02-23T11:41:20;101381.13;;;6.52;51.54
62055;BME280;48653;51.742;-1.256;2023-02-23T11:43:47;101389.53;;;6.77;51.02
62055;BME280;48653;51.742;-1.256;2023-02-23T11:46:07;101383.63;;;6.51;51.65
62055;BME280;48653;51.742;-1.256;2023-02-23T11:48:35;101386.11;;;6.01;52.36
62055;BME280;48653;51.742;-1.256;2023-02-23T11:50:59;101386.13;;;6.49;51.81
62055;BME280;48653;51.742;-1.256;2023-02-23T11:53:28;101385.78;;;6.43;52.11
62055;BME280;48653;51.742;-1.256;2023-02-23T11:55:50;101382.33;;;6.25;51.86
62055;BME280;48653;51.742;-1.256;2023-02-23T11:58:22;101378.96;;;6.39;51.34
62055;BME280;48653;51.742;-1.256;2023-02-23T12:00:39;101380.88;;;7.50;50.33
62055;BME280;48653;51.742;-1.256;2023-02-23T12:03:04;101378.59;;;7.71;49.52
62055;BME280;48653;51.742;-1.256;2023-02-23T12:05:30;101381.96;;;7.16;49.50
62055;BME280;48653;51.742;-1.256;2023-02-23T12:07:59;101383.50;;;6.96;50.24
62055;BME280;48653;51.742;-1.256;2023-02-23T12:10:22;101378.58;;;6.97;50.14
62055;BME280;48653;51.742;-1.256;2023-02-23T12:12:52;101373.06;;;7.59;49.61
62055;BME280;48653;51.742;-1.256;2023-02-23T12:15:19;101369.51;;;7.56;49.04
62055;BME280;48653;51.742;-1.256;2023-02-23T12:17:39;101366.03;;;8.41;48.11
62055;BME280;48653;51.742;-1.256;2023-02-23T12:20:04;101375.77;;;7.61;48.46
62055;BME280;48653;51.742;-1.256;2023-02-23T12:22:31;101372.12;;;7.07;48.89
62055;BME280;48653;51.742;-1.256;2023-02-23T12:24:55;101368.23;;;6.48;49.73
62055;BME280;48653;51.742;-1.256;2023-02-23T12:27:20;101369.82;;;7.35;49.12
62055;BME280;48653;51.742;-1.256;2023-02-23T12:29:54;101370.26;;;7.26;48.72
62055;BME280;48653;51.742;-1.256;2023-02-23T12:32:12;101368.98;;;7.93;47.95
62055;BME280;48653;51.742;-1.256;2023-02-23T12:34:38;101367.00;;;8.43;47.17
62055;BME280;48653;51.742;-1.256;2023-02-23T12:37:00;101362.11;;;7.70;47.80
62055;BME280;48653;51.742;-1.256;2023-02-23T12:39:27;101363.35;;;7.87;47.70
62055;BME280;48653;51.742;-1.256;2023-02-23T12:41:56;101366.70;;;7.58;48.12
62055;BME280;48653;51.742;-1.256;2023-02-23T12:44:20;101365.19;;;7.57;48.13
62055;BME280;48653;51.742;-1.256;2023-02-23T12:46:42;101360.72;;;7.56;48.05
62055;BME280;48653;51.742;-1.256;2023-02-23T12:49:11;101362.90;;;8.12;46.85
62055;BME280;48653;51.742;-1.256;2023-02-23T12:51:32;101366.51;;;7.36;47.32
62055;BME280;48653;51.742;-1.256;2023-02-23T12:53:55;101373.95;;;7.32;46.78
62055;BME280;48653;51.742;-1.256;2023-02-23T12:56:32;101373.88;;;6.72;47.30